Time;durP1;ratioP1;P1;durP2;ratioP2;P2;SDS_P1;SDS_P2;PMS_P1;PMS_P2;Temp;Humidity;BMP_temperature;BMP_pressure;BME280_temperature;BME280_humidity;BME280_pressure;Samples;Min_cycle;Max_cycle;Signal;HPM_P1;HPM_P2
2021/09/11 00:01:57;;;;;;;7.20;6.10;;;;;;;16.09;61.30;100620.70;226864;1210;138193;-74
2021/09/11 00:06:59;;;;;;;7.50;6.70;;;;;;;16.06;61.36;100614.56;227021;1209;138933;-74
2021/09/11 00:12:00;;;;;;;7.40;6.30;;;;;;;16.04;61.46;100622.08;226961;1209;138413;-73
2021/09/11 00:22:17;;;;;;;8.50;6.70;;;;;;;15.96;61.59;100619.93;226978;1201;138295;-71
2021/09/11 00:27:18;;;;;;;7.10;6.30;;;;;;;15.84;62.01;100617.08;226823;1209;139130;-67
2021/09/11 00:32:20;;;;;;;6.70;5.60;;;;;;;15.79;62.24;100615.60;226826;1209;138836;-70
2021/09/11 00:37:21;;;;;;;7.90;5.80;;;;;;;15.80;62.09;100614.90;226796;1209;139229;-72
2021/09/11 00:42:23;;;;;;;7.40;6.60;;;;;;;15.80;62.16;100613.13;226841;1209;139206;-70
2021/09/11 00:47:25;;;;;;;10.50;7.60;;;;;;;15.71;62.55;100610.52;226921;1209;138087;-67
2021/09/11 00:52:26;;;;;;;7.00;6.30;;;;;;;15.68;62.63;100608.35;226932;1201;138989;-70
2021/09/11 00:57:28;;;;;;;7.90;6.70;;;;;;;15.70;62.56;100600.64;226748;1209;138884;-69
2021/09/11 01:02:30;;;;;;;7.40;6.60;;;;;;;15.72;62.41;100599.92;226830;1200;138233;-70
2021/09/11 01:07:32;;;;;;;7.20;6.50;;;;;;;15.71;62.51;100594.89;226839;1208;138620;-72
2021/09/11 01:12:35;;;;;;;10.10;7.00;;;;;;;15.58;62.92;100595.27;227036;1208;141830;-71
2021/09/11 01:17:42;;;;;;;7.20;6.50;;;;;;;15.57;62.76;100596.64;226921;1209;138684;-71
2021/09/11 01:22:43;;;;;;;8.80;6.70;;;;;;;15.55;62.91;100600.14;226697;1208;139125;-71
2021/09/11 01:27:45;;;;;;;8.90;6.70;;;;;;;15.43;63.33;100601.77;226776;1208;138430;-71
2021/09/11 01:32:49;;;;;;;9.10;6.80;;;;;;;15.37;63.53;100598.46;227104;1208;138426;-69
2021/09/11 01:37:50;;;;;;;7.40;6.60;;;;;;;15.39;63.43;100594.83;228254;1209;138582;-69
2021/09/11 01:42:52;;;;;;;6.90;6.20;;;;;;;15.39;63.28;100597.89;228162;1202;138120;-70
2021/09/11 01:47:54;;;;;;;7.40;6.40;;;;;;;15.43;63.17;100595.09;227446;1208;138216;-70
2021/09/11 01:52:56;;;;;;;6.90;6.30;;;;;;;15.48;62.89;100590.69;227413;1202;138508;-71
2021/09/11 01:57:57;;;;;;;7.50;6.60;;;;;;;15.44;63.19;100593.70;226909;1209;139162;-70
2021/09/11 02:02:59;;;;;;;7.80;7.00;;;;;;;15.35;63.57;100593.48;226847;1209;139188;-71
2021/09/11 02:08:01;;;;;;;8.20;6.20;;;;;;;15.30;63.88;100593.10;226849;1208;139198;-70
2021/09/11 02:13:03;;;;;;;11.00;7.90;;;;;;;15.29;64.01;100594.80;226925;1208;138799;-70
2021/09/11 02:18:05;;;;;;;8.00;7.10;;;;;;;15.26;64.29;100594.75;226763;1208;139922;-71
2021/09/11 02:23:06;;;;;;;8.70;7.80;;;;;;;15.32;64.15;100598.84;226794;1208;138824;-70
2021/09/11 02:28:08;;;;;;;8.00;7.20;;;;;;;15.48;63.84;100596.31;226832;1208;138919;-70
2021/09/11 02:33:10;;;;;;;8.10;7.30;;;;;;;15.41;64.80;100597.77;226789;1208;138328;-69
2021/09/11 02:38:12;;;;;;;11.20;8.20;;;;;;;15.25;65.61;100597.02;226771;1203;138707;-70
2021/09/11 02:43:13;;;;;;;8.40;7.60;;;;;;;15.12;66.19;100591.06;226835;1208;138763;-68
2021/09/11 02:48:15;;;;;;;8.00;7.20;;;;;;;15.05;66.64;100583.81;226789;1208;138202;-72
2021/09/11 02:53:17;;;;;;;7.90;7.20;;;;;;;14.96;66.55;100584.07;226807;1208;138185;-70
2021/09/11 02:58:22;;;;;;;9.90;7.60;;;;;;;14.91;66.74;100581.96;226760;1208;138963;-70
2021/09/11 03:03:24;;;;;;;9.30;6.90;;;;;;;14.89;66.84;100586.44;226763;1208;138769;-72
2021/09/11 03:08:26;;;;;;;7.70;7.00;;;;;;;14.77;66.98;100581.85;226885;1208;138463;-70
2021/09/11 03:13:28;;;;;;;7.80;6.50;;;;;;;14.68;66.61;100587.13;226856;1209;138943;-70
2021/09/11 03:18:29;;;;;;;10.70;8.30;;;;;;;14.70;66.61;100587.19;226810;1204;138758;-71
2021/09/11 03:23:31;;;;;;;10.20;8.10;;;;;;;14.60;66.97;100583.91;226778;1207;138736;-71
2021/09/11 03:28:33;;;;;;;8.40;7.60;;;;;;;14.59;66.87;100584.25;226758;1209;138849;-69
2021/09/11 03:33:34;;;;;;;11.40;8.30;;;;;;;14.65;66.60;100578.94;226835;1209;139265;-70
2021/09/11 03:38:36;;;;;;;8.80;7.80;;;;;;;14.55;66.92;100576.23;226853;1209;138963;-70
2021/09/11 03:43:37;;;;;;;7.90;7.10;;;;;;;14.42;67.26;100571.55;226788;1209;139381;-70
2021/09/11 03:48:40;;;;;;;8.20;7.40;;;;;;;14.35;67.52;100566.89;226752;1209;138263;-71
2021/09/11 03:53:41;;;;;;;8.50;7.70;;;;;;;14.28;67.70;100567.60;226794;1209;139031;-70
2021/09/11 03:58:43;;;;;;;8.70;7.80;;;;;;;14.18;68.24;100567.86;227025;1201;138623;-70
2021/09/11 04:03:45;;;;;;;10.10;7.70;;;;;;;14.13;68.71;100569.73;226813;1209;138756;-71
2021/09/11 04:08:46;;;;;;;9.70;8.40;;;;;;;14.16;68.43;100571.02;226909;1202;138498;-71
2021/09/11 04:13:48;;;;;;;11.10;9.70;;;;;;;14.08;68.92;100573.34;226869;1209;138900;-69
2021/09/11 04:18:50;;;;;;;11.50;10.10;;;;;;;14.09;69.07;100577.30;226777;1209;139080;-71
2021/09/11 04:23:51;;;;;;;10.50;9.40;;;;;;;14.08;69.09;100578.96;226986;1209;139275;-69
2021/09/11 04:28:53;;;;;;;10.40;9.30;;;;;;;14.01;69.28;100578.15;226906;1209;138541;-70
2021/09/11 04:33:55;;;;;;;9.80;8.80;;;;;;;13.96;69.38;100576.30;226763;1207;138726;-71
2021/09/11 04:38:56;;;;;;;8.80;7.90;;;;;;;13.91;69.58;100576.90;226734;1209;138694;-70
2021/09/11 04:43:58;;;;;;;11.40;10.20;;;;;;;13.89;69.52;100578.05;226820;1209;138227;-71
2021/09/11 04:48:59;;;;;;;10.30;9.30;;;;;;;13.88;69.82;100579.58;226883;1209;138437;-71
2021/09/11 04:54:01;;;;;;;10.90;9.10;;;;;;;13.85;69.90;100587.77;226778;1209;138869;-69
2021/09/11 04:59:02;;;;;;;15.50;14.00;;;;;;;13.84;70.02;100593.38;226873;1208;138430;-70
2021/09/11 05:04:04;;;;;;;12.70;9.90;;;;;;;13.80;70.23;100590.55;226727;1208;139421;-69
2021/09/11 05:09:06;;;;;;;9.80;8.80;;;;;;;13.81;70.38;100593.51;226791;1209;139928;-71
2021/09/11 05:14:08;;;;;;;11.30;9.90;;;;;;;13.93;70.32;100590.31;226766;1209;138955;-70
2021/09/11 05:19:09;;;;;;;11.60;10.60;;;;;;;14.07;70.00;100587.56;226773;1209;138441;-70
2021/09/11 05:24:11;;;;;;;11.50;9.70;;;;;;;14.16;69.84;100592.77;226895;1209;138576;-70
2021/09/11 05:29:13;;;;;;;9.80;8.80;;;;;;;14.15;70.25;100593.42;226935;1209;138526;-70
2021/09/11 05:34:14;;;;;;;9.60;8.60;;;;;;;14.17;70.68;100593.73;226841;1210;138945;-70
2021/09/11 05:39:17;;;;;;;10.20;9.10;;;;;;;14.19;70.90;100595.30;226832;1209;138234;-70
2021/09/11 05:44:19;;;;;;;13.20;10.40;;;;;;;14.22;71.16;100594.00;226933;1209;138337;-71
2021/09/11 05:49:20;;;;;;;11.10;9.50;;;;;;;14.37;70.81;100587.68;226757;1202;138819;-71
2021/09/11 05:54:22;;;;;;;10.40;9.30;;;;;;;14.48;70.73;100584.72;226809;1209;139657;-70
2021/09/11 05:59:23;;;;;;;10.80;9.00;;;;;;;14.53;69.79;100590.90;226792;1209;138426;-71
2021/09/11 06:04:25;;;;;;;10.20;9.10;;;;;;;14.58;69.58;100595.50;226780;1209;138848;-71
2021/09/11 06:09:27;;;;;;;9.10;8.20;;;;;;;14.69;69.12;100590.55;226832;1209;139081;-71
2021/09/11 06:14:28;;;;;;;10.60;8.40;;;;;;;14.79;68.79;100595.28;226785;1209;209952;-71
2021/09/11 06:19:30;;;;;;;9.90;7.90;;;;;;;14.90;68.57;100595.08;226864;1202;138804;-71
2021/09/11 06:24:31;;;;;;;9.20;7.70;;;;;;;15.00;68.50;100593.27;226778;1210;138159;-73
2021/09/11 06:29:34;;;;;;;10.50;8.50;;;;;;;15.09;68.31;100598.52;227154;1209;139032;-71
2021/09/11 06:34:36;;;;;;;8.80;8.00;;;;;;;15.22;68.84;100596.65;226999;1209;139888;-70
2021/09/11 06:39:37;;;;;;;9.90;8.10;;;;;;;15.43;68.72;100599.88;226810;1209;138486;-71
2021/09/11 06:44:39;;;;;;;10.80;8.50;;;;;;;15.62;68.11;100600.18;226857;1209;138323;-71
2021/09/11 06:49:41;;;;;;;8.90;7.70;;;;;;;15.76;68.07;100601.78;226854;1209;138398;-71
2021/09/11 06:54:43;;;;;;;9.10;8.10;;;;;;;15.86;68.00;100603.88;226974;1206;138886;-71
2021/09/11 06:59:44;;;;;;;9.70;7.70;;;;;;;15.96;68.06;100602.70;226910;1209;138618;-71
2021/09/11 07:04:46;;;;;;;10.60;7.50;;;;;;;16.07;68.16;100604.95;226977;1209;139013;-70
2021/09/11 07:09:48;;;;;;;9.70;7.60;;;;;;;16.20;68.17;100606.73;227421;1209;138784;-71
2021/09/11 07:14:49;;;;;;;10.00;7.30;;;;;;;16.41;67.62;100608.85;226826;1208;140070;-74
2021/09/11 07:19:51;;;;;;;9.20;8.10;;;;;;;16.66;66.94;100612.79;227468;1202;138991;-73
2021/09/11 07:24:52;;;;;;;9.90;6.60;;;;;;;16.88;66.10;100611.66;227174;1202;138128;-70
2021/09/11 07:29:56;;;;;;;8.10;6.70;;;;;;;17.00;65.20;100607.31;226814;1201;138815;-74
2021/09/11 07:34:58;;;;;;;7.60;5.80;;;;;;;17.09;64.28;100601.77;227030;1206;139076;-70
2021/09/11 07:39:59;;;;;;;7.50;5.70;;;;;;;17.28;62.00;100595.01;226843;1208;138577;-70
2021/09/11 07:45:03;;;;;;;6.20;5.40;;;;;;;17.38;61.74;100598.30;226845;1208;138694;-71
2021/09/11 07:50:05;;;;;;;8.70;5.00;;;;;;;17.49;62.21;100596.50;226968;1209;139153;-71
2021/09/11 07:55:08;;;;;;;5.80;4.80;;;;;;;17.76;60.05;100591.04;226944;1202;140436;-70
2021/09/11 08:00:10;;;;;;;5.50;4.50;;;;;;;17.92;60.28;100593.89;227017;1208;138919;-71
2021/09/11 08:05:12;;;;;;;10.10;5.20;;;;;;;18.04;59.78;100596.63;227277;1207;138635;-72
2021/09/11 08:10:14;;;;;;;8.10;6.20;;;;;;;18.21;59.87;100598.00;226792;1209;140140;-72
2021/09/11 08:15:16;;;;;;;6.60;5.10;;;;;;;18.34;59.73;100595.18;226799;1208;138578;-71
2021/09/11 08:20:18;;;;;;;6.00;4.80;;;;;;;18.57;58.57;100598.25;226880;1209;138363;-71
2021/09/11 08:25:20;;;;;;;6.40;5.00;;;;;;;18.77;57.64;100589.89;226823;1208;138515;-71
2021/09/11 08:30:22;;;;;;;6.10;4.60;;;;;;;18.82;57.42;100588.10;226784;1208;138377;-72
2021/09/11 08:35:24;;;;;;;6.90;4.40;;;;;;;18.86;57.94;100585.68;226909;1208;138288;-73
2021/09/11 08:40:25;;;;;;;4.90;4.00;;;;;;;19.12;56.65;100584.57;226862;1208;138461;-70
2021/09/11 08:45:28;;;;;;;5.00;3.90;;;;;;;19.33;55.49;100582.48;226888;1208;139276;-70
2021/09/11 08:50:30;;;;;;;7.50;4.10;;;;;;;19.50;53.34;100588.66;227520;1208;138375;-71
2021/09/11 08:55:31;;;;;;;5.70;3.60;;;;;;;19.67;52.64;100581.67;227528;1208;138683;-70
2021/09/11 09:00:53;;;;;;;7.60;3.30;;;;;;;19.76;53.71;100573.23;227441;1202;138364;-71
2021/09/11 09:05:55;;;;;;;3.70;3.40;;;;;;;19.93;51.61;100566.83;226975;1202;138377;-71
2021/09/11 09:11:14;;;;;;;4.60;3.70;;;;;;;20.03;52.18;100567.53;226844;1208;138199;-70
2021/09/11 09:16:16;;;;;;;5.80;4.20;;;;;;;20.11;53.17;100569.73;226847;1208;141698;-72
2021/09/11 09:21:20;;;;;;;4.10;3.70;;;;;;;20.38;50.38;100567.37;227189;1208;138502;-71
2021/09/11 09:26:23;;;;;;;4.30;3.90;;;;;;;20.59;48.86;100571.23;227028;1208;138514;-71
2021/09/11 09:31:25;;;;;;;4.40;3.40;;;;;;;20.76;47.60;100575.46;226885;1201;138238;-69
2021/09/11 09:36:34;;;;;;;5.40;3.70;;;;;;;20.87;48.24;100577.11;226948;1201;138511;-71
2021/09/11 09:42:03;;;;;;;4.00;3.10;;;;;;;21.11;45.84;100576.90;226822;1208;138246;-69
2021/09/11 09:47:05;;;;;;;4.30;3.20;;;;;;;21.20;46.49;100568.98;226839;1202;138923;-68
2021/09/11 09:52:07;;;;;;;11.10;4.80;;;;;;;21.30;47.44;100564.98;226928;1202;138688;-68
2021/09/11 09:57:10;;;;;;;5.60;3.20;;;;;;;21.55;46.68;100560.77;226905;1206;139390;-71
2021/09/11 10:02:11;;;;;;;4.00;3.30;;;;;;;21.62;46.95;100561.75;227297;1208;139464;-71
2021/09/11 10:07:16;;;;;;;5.90;3.20;;;;;;;21.70;47.76;100560.38;226833;1208;139049;-73
2021/09/11 10:12:35;;;;;;;4.60;4.00;;;;;;;21.74;46.80;100556.37;226906;1208;138907;-71
2021/09/11 10:17:37;;;;;;;6.50;4.70;;;;;;;21.90;47.51;100560.59;227157;1203;138177;-75
2021/09/11 10:22:43;;;;;;;4.60;3.50;;;;;;;22.03;47.10;100553.49;226840;1208;138353;-72
2021/09/11 10:27:44;;;;;;;5.50;3.60;;;;;;;22.11;47.73;100554.90;226761;1208;138467;-70
2021/09/11 10:32:48;;;;;;;4.60;3.50;;;;;;;22.19;47.72;100554.65;226898;1208;138509;-68
2021/09/11 10:37:52;;;;;;;4.40;3.50;;;;;;;22.30;46.91;100549.02;227085;1202;138802;-72
2021/09/11 10:43:06;;;;;;;5.50;3.40;;;;;;;22.38;47.60;100543.87;227057;1202;138648;-73
2021/09/11 10:48:28;;;;;;;;;;;;;;;22.59;47.96;100545.57;227389;1208;138957;-72
2021/09/11 10:53:29;;;;;;;7.70;3.70;;;;;;;22.77;47.36;100537.57;226862;1201;124678;-72
2021/09/11 10:58:31;;;;;;;5.40;3.70;;;;;;;22.77;47.26;100532.31;226804;1208;138779;-71
2021/09/11 11:03:33;;;;;;;5.90;4.20;;;;;;;23.00;47.42;100531.27;226835;1206;138687;-72
2021/09/11 11:08:34;;;;;;;4.40;3.70;;;;;;;23.27;46.15;100533.99;226915;1206;138668;-73
2021/09/11 11:13:36;;;;;;;4.60;3.30;;;;;;;23.53;45.49;100525.78;227319;1208;138312;-70
2021/09/11 11:18:47;;;;;;;4.80;4.40;;;;;;;23.81;45.93;100518.95;226740;1206;139477;-71
2021/09/11 11:23:48;;;;;;;4.60;3.50;;;;;;;24.06;45.31;100519.31;227206;1202;138449;-72
2021/09/11 11:28:52;;;;;;;7.10;4.50;;;;;;;24.16;46.45;100517.85;226826;1209;138625;-74
2021/09/11 11:33:54;;;;;;;4.20;3.80;;;;;;;24.15;45.93;100509.66;227249;1208;139673;-70
2021/09/11 11:38:56;;;;;;;5.80;4.00;;;;;;;23.66;46.71;100504.92;226946;1208;138698;-73
2021/09/11 11:43:58;;;;;;;4.60;4.10;;;;;;;23.63;48.79;100501.98;227344;1202;138774;-72
2021/09/11 11:48:59;;;;;;;5.50;4.40;;;;;;;23.53;48.37;100502.03;226775;1202;138961;-71
2021/09/11 11:54:01;;;;;;;4.90;4.20;;;;;;;23.53;49.03;100504.30;226800;1209;139156;-70
2021/09/11 11:59:03;;;;;;;5.80;4.90;;;;;;;23.75;49.09;100505.88;227197;1204;138816;-71
2021/09/11 12:04:15;;;;;;;8.60;5.10;;;;;;;25.46;45.14;100504.63;226836;1208;138600;-70
2021/09/11 12:09:18;;;;;;;5.20;4.60;;;;;;;26.87;41.35;100497.06;227458;1204;138924;-70
2021/09/11 12:14:20;;;;;;;6.00;5.40;;;;;;;24.80;46.18;100495.27;227000;1208;138306;-73
2021/09/11 12:19:22;;;;;;;6.00;4.60;;;;;;;24.24;48.05;100487.16;227034;1205;138361;-71
2021/09/11 12:24:28;;;;;;;5.80;5.20;;;;;;;24.38;47.68;100485.44;227383;1202;139974;-73
2021/09/11 12:29:30;;;;;;;9.90;5.20;;;;;;;24.60;47.32;100484.67;226805;1201;139114;-69
2021/09/11 12:34:42;;;;;;;10.60;9.60;;;;;;;24.31;48.23;100478.77;226867;1208;138123;-69
2021/09/11 12:39:44;;;;;;;5.80;5.00;;;;;;;24.26;49.22;100477.73;226780;1208;138874;-70
2021/09/11 12:44:46;;;;;;;5.60;5.10;;;;;;;24.50;47.53;100476.05;226956;1208;138664;-71
2021/09/11 12:49:47;;;;;;;5.60;4.60;;;;;;;24.32;48.89;100466.67;227068;1209;139223;-71
2021/09/11 12:54:49;;;;;;;5.60;5.10;;;;;;;24.34;49.30;100464.68;226834;1208;138552;-71
2021/09/11 12:59:50;;;;;;;7.00;5.20;;;;;;;24.44;48.83;100459.78;226787;1209;138235;-73
2021/09/11 13:04:55;;;;;;;5.70;5.10;;;;;;;25.40;45.69;100457.88;227026;1206;138353;-73
2021/09/11 13:09:56;;;;;;;;;;;;;;;24.96;46.16;100453.48;226772;1208;138516;-73
2021/09/11 13:14:58;;;;;;;5.70;5.20;;;;;;;25.30;46.37;100452.30;227737;1208;125551;-71
2021/09/11 13:20:00;;;;;;;7.80;5.40;;;;;;;25.71;45.57;100455.64;227408;1202;138435;-71
2021/09/11 13:25:02;;;;;;;6.50;5.20;;;;;;;25.36;45.85;100449.17;227067;1208;138497;-73
2021/09/11 13:30:04;;;;;;;6.10;5.50;;;;;;;25.19;46.68;100443.02;227192;1206;139050;-70
2021/09/11 13:35:06;;;;;;;6.70;6.10;;;;;;;24.88;47.26;100441.39;226778;1208;141864;-70
2021/09/11 13:40:10;;;;;;;7.80;6.90;;;;;;;24.72;47.80;100435.89;226836;1208;138435;-71
2021/09/11 13:45:11;;;;;;;5.90;5.30;;;;;;;24.66;48.37;100434.39;227146;1201;139303;-72
2021/09/11 13:50:13;;;;;;;7.70;5.50;;;;;;;24.54;48.44;100429.92;226903;1203;138351;-71
2021/09/11 13:55:15;;;;;;;6.00;5.40;;;;;;;24.62;49.15;100429.67;226860;1203;139110;-71
2021/09/11 14:00:16;;;;;;;6.00;5.40;;;;;;;24.79;48.46;100428.43;226889;1205;138639;-69
2021/09/11 14:05:18;;;;;;;7.00;5.60;;;;;;;24.70;48.65;100422.82;226836;1208;138162;-70
2021/09/11 14:10:20;;;;;;;7.30;5.00;;;;;;;24.65;49.82;100421.30;226838;1208;138541;-72
2021/09/11 14:15:23;;;;;;;11.40;10.30;;;;;;;24.62;49.11;100423.75;226837;1204;138115;-72
2021/09/11 14:20:25;;;;;;;7.30;5.60;;;;;;;24.63;49.14;100419.81;226774;1208;139084;-72
2021/09/11 14:25:26;;;;;;;7.00;5.80;;;;;;;24.49;49.30;100417.89;226787;1202;138072;-71
2021/09/11 14:30:28;;;;;;;6.10;5.60;;;;;;;24.35;49.70;100423.02;226879;1208;138198;-73
2021/09/11 14:35:30;;;;;;;6.00;5.40;;;;;;;24.27;50.52;100420.61;227378;1208;138559;-68
2021/09/11 14:40:31;;;;;;;9.30;5.90;;;;;;;24.28;50.53;100425.76;226888;1209;138404;-70
2021/09/11 14:45:33;;;;;;;9.60;6.00;;;;;;;24.18;50.60;100422.84;226909;1209;138718;-71
2021/09/11 14:50:35;;;;;;;6.90;5.20;;;;;;;24.14;50.59;100417.35;226906;1209;138154;-71
2021/09/11 14:55:36;;;;;;;6.40;5.70;;;;;;;24.13;50.78;100416.84;226862;1202;138058;-71
2021/09/11 15:00:39;;;;;;;8.10;5.70;;;;;;;24.07;51.01;100416.68;227284;1202;138413;-72
2021/09/11 15:05:41;;;;;;;6.40;5.80;;;;;;;24.09;51.18;100418.17;227020;1208;138214;-73
2021/09/11 15:10:42;;;;;;;6.30;5.50;;;;;;;24.02;51.47;100417.30;226872;1208;138147;-73
2021/09/11 15:15:45;;;;;;;8.00;6.10;;;;;;;23.98;52.30;100413.53;226971;1208;138250;-72
2021/09/11 15:20:47;;;;;;;7.90;5.90;;;;;;;23.95;52.44;100417.58;226933;1208;139161;-72
2021/09/11 15:25:49;;;;;;;6.40;5.90;;;;;;;23.93;52.66;100417.65;227386;1202;138493;-72
2021/09/11 15:30:51;;;;;;;8.10;6.00;;;;;;;23.90;52.80;100412.19;227079;1201;138258;-70
2021/09/11 15:35:53;;;;;;;9.30;5.50;;;;;;;23.84;52.46;100410.88;226943;1203;138655;-70
2021/09/11 15:40:54;;;;;;;8.50;5.80;;;;;;;23.81;52.23;100411.48;227013;1208;138186;-72
2021/09/11 15:45:56;;;;;;;9.10;6.30;;;;;;;23.75;52.87;100411.48;227040;1208;138323;-71
2021/09/11 15:50:58;;;;;;;6.70;5.80;;;;;;;23.68;53.40;100412.36;227149;1202;138457;-71
2021/09/11 15:56:03;;;;;;;7.40;6.20;;;;;;;23.57;54.09;100405.84;226918;1204;139026;-72
2021/09/11 16:01:05;;;;;;;7.60;6.70;;;;;;;23.45;55.07;100401.29;226970;1204;138367;-71
2021/09/11 16:06:06;;;;;;;9.90;7.70;;;;;;;23.34;56.20;100401.09;226930;1208;138489;-70
2021/09/11 16:11:08;;;;;;;10.20;8.10;;;;;;;23.28;56.88;100402.58;226942;1208;139220;-70
2021/09/11 16:16:10;;;;;;;10.50;8.60;;;;;;;23.26;57.45;100401.99;226868;1201;139836;-71
2021/09/11 16:21:12;;;;;;;13.00;8.50;;;;;;;23.17;59.00;100396.58;226849;1208;138941;-72
2021/09/11 16:26:14;;;;;;;11.40;10.30;;;;;;;23.05;60.18;100388.48;226794;1202;138759;-72
2021/09/11 16:31:16;;;;;;;9.60;8.60;;;;;;;22.96;59.91;100396.04;226874;1208;139406;-74
2021/09/11 16:36:18;;;;;;;9.20;8.30;;;;;;;22.89;60.32;100394.40;226834;1208;138330;-73
2021/09/11 16:41:21;;;;;;;9.20;8.20;;;;;;;22.83;60.57;100398.17;227129;1204;138848;-71
2021/09/11 16:46:23;;;;;;;10.80;8.80;;;;;;;22.70;61.97;100400.30;227363;1208;138957;-72
2021/09/11 16:51:26;;;;;;;9.20;8.20;;;;;;;22.56;62.55;100400.82;226961;1208;138842;-71
2021/09/11 16:56:27;;;;;;;10.10;8.20;;;;;;;22.49;60.15;100410.80;226919;1206;138635;-71
2021/09/11 17:01:29;;;;;;;10.10;8.90;;;;;;;22.53;59.33;100415.57;226816;1208;139020;-71
2021/09/11 17:06:31;;;;;;;14.90;10.30;;;;;;;22.54;59.69;100412.99;226877;1202;138839;-71
2021/09/11 17:11:33;;;;;;;13.20;10.40;;;;;;;22.33;62.70;100414.59;227134;1208;139467;-71
2021/09/11 17:16:36;;;;;;;12.70;11.40;;;;;;;22.02;64.60;100416.70;226925;1208;138466;-72
2021/09/11 17:21:38;;;;;;;12.60;11.40;;;;;;;21.95;63.07;100418.85;227695;1202;138565;-71
2021/09/11 17:26:40;;;;;;;14.30;12.80;;;;;;;22.06;62.11;100420.29;226875;1209;138466;-70
2021/09/11 17:31:42;;;;;;;15.80;13.90;;;;;;;22.09;61.56;100420.16;226977;1203;138490;-75
2021/09/11 17:36:43;;;;;;;17.90;15.90;;;;;;;22.01;62.10;100414.52;226939;1203;141971;-71
2021/09/11 17:41:45;;;;;;;19.10;17.20;;;;;;;21.98;61.71;100417.34;226839;1208;138889;-72
2021/09/11 17:46:47;;;;;;;18.00;16.40;;;;;;;21.92;62.49;100417.86;226791;1202;138540;-72
2021/09/11 17:51:49;;;;;;;21.00;18.90;;;;;;;21.83;62.70;100422.24;226859;1204;138774;-71
2021/09/11 17:56:51;;;;;;;18.60;16.90;;;;;;;21.71;63.29;100426.08;226744;1203;139133;-74
2021/09/11 18:01:54;;;;;;;19.70;17.80;;;;;;;21.61;63.81;100428.39;227111;1208;139610;-72
2021/09/11 18:06:58;;;;;;;20.20;18.00;;;;;;;21.52;64.27;100430.39;226821;1208;139780;-70
2021/09/11 18:12:18;;;;;;;19.80;17.90;;;;;;;21.50;64.41;100434.02;226895;1207;139301;-71
2021/09/11 18:17:22;;;;;;;20.20;18.30;;;;;;;21.45;64.94;100434.69;227506;1202;139559;-71
2021/09/11 18:22:28;;;;;;;20.20;18.00;;;;;;;21.35;65.42;100438.05;226874;1208;139083;-71
2021/09/11 18:27:30;;;;;;;19.80;17.90;;;;;;;21.24;65.97;100439.53;227405;1208;139046;-72
2021/09/11 18:32:32;;;;;;;19.20;17.40;;;;;;;21.12;66.54;100449.17;226978;1202;139508;-71
2021/09/11 18:37:34;;;;;;;19.90;17.90;;;;;;;21.01;66.92;100451.75;227336;1201;138942;-72
2021/09/11 18:42:36;;;;;;;19.80;17.90;;;;;;;20.91;67.35;100456.21;226988;1208;139002;-70
2021/09/11 18:47:37;;;;;;;19.30;17.20;;;;;;;20.86;67.63;100459.56;226898;1208;138944;-70
2021/09/11 18:52:39;;;;;;;20.10;17.90;;;;;;;20.79;68.03;100466.30;226900;1208;139417;-73
2021/09/11 18:57:41;;;;;;;22.40;18.10;;;;;;;20.86;67.95;100469.69;227151;1209;140512;-75
2021/09/11 19:02:43;;;;;;;23.10;18.40;;;;;;;20.91;67.67;100475.08;226870;1202;139419;-72
2021/09/11 19:07:45;;;;;;;21.10;17.90;;;;;;;20.96;67.85;100475.40;227090;1208;138947;-72
2021/09/11 19:12:47;;;;;;;18.70;17.00;;;;;;;20.82;68.42;100468.77;226988;1203;139048;-71
2021/09/11 19:17:49;;;;;;;20.00;18.00;;;;;;;20.76;68.54;100466.95;226777;1208;138942;-70
2021/09/11 19:22:50;;;;;;;23.90;21.60;;;;;;;20.67;68.97;100471.02;227332;1208;138496;-71
2021/09/11 19:27:52;;;;;;;24.50;21.90;;;;;;;20.55;69.36;100473.14;226869;1208;139508;-71
2021/09/11 19:32:55;;;;;;;23.00;20.80;;;;;;;20.46;69.59;100471.05;226819;1208;138773;-70
2021/09/11 19:37:57;;;;;;;23.50;20.20;;;;;;;20.46;69.93;100472.25;227611;1208;139949;-72
2021/09/11 19:42:59;;;;;;;22.50;20.20;;;;;;;20.44;70.32;100469.38;226951;1208;139431;-72
2021/09/11 19:48:01;;;;;;;24.90;21.20;;;;;;;20.49;70.16;100469.02;226865;1208;139223;-74
2021/09/11 19:53:03;;;;;;;22.90;20.40;;;;;;;20.44;70.21;100470.08;227059;1209;139327;-71
2021/09/11 19:58:05;;;;;;;22.60;20.40;;;;;;;20.29;70.72;100468.88;227001;1208;139057;-71
2021/09/11 20:03:07;;;;;;;24.90;22.40;;;;;;;20.10;71.29;100468.10;226861;1208;138520;-71
2021/09/11 20:08:09;;;;;;;24.00;21.30;;;;;;;20.01;71.91;100463.45;227190;1202;139555;-71
2021/09/11 20:13:10;;;;;;;20.00;18.10;;;;;;;19.97;72.05;100459.98;227657;1203;138935;-75
2021/09/11 20:18:12;;;;;;;20.60;18.70;;;;;;;20.04;71.71;100461.29;227560;1205;139471;-71
2021/09/11 20:23:13;;;;;;;20.90;18.80;;;;;;;19.92;72.20;100457.79;227345;1201;138622;-72
2021/09/11 20:28:15;;;;;;;23.40;21.00;;;;;;;19.83;72.39;100459.77;227541;1203;138681;-71
2021/09/11 20:33:17;;;;;;;24.10;21.70;;;;;;;19.80;72.43;100461.14;227192;1208;138835;-71
2021/09/11 20:38:19;;;;;;;26.10;22.30;;;;;;;19.70;72.41;100463.87;227081;1204;140009;-72
2021/09/11 20:43:20;;;;;;;23.40;21.00;;;;;;;19.29;73.81;100479.04;227071;1209;139458;-70
2021/09/11 20:48:22;;;;;;;23.00;20.80;;;;;;;19.39;74.12;100468.41;227026;1208;139643;-71
2021/09/11 20:53:24;;;;;;;22.40;20.20;;;;;;;19.81;72.64;100467.40;226982;1209;139031;-71
2021/09/11 20:58:26;;;;;;;24.60;22.10;;;;;;;19.57;73.35;100475.57;226947;1208;139215;-71
2021/09/11 21:03:28;;;;;;;23.30;20.90;;;;;;;19.48;74.18;100471.75;226901;1209;139628;-71
2021/09/11 21:08:30;;;;;;;24.20;21.90;;;;;;;19.60;73.65;100461.08;227097;1205;139977;-70
2021/09/11 21:13:31;;;;;;;24.90;22.20;;;;;;;19.70;73.25;100464.50;227157;1201;139289;-72
2021/09/11 21:18:34;;;;;;;22.20;19.90;;;;;;;19.52;73.21;100464.90;226995;1209;139542;-73
2021/09/11 21:23:36;;;;;;;22.90;20.70;;;;;;;19.28;74.54;100468.65;226988;1202;140789;-71
2021/09/11 21:28:39;;;;;;;22.50;20.30;;;;;;;19.50;73.92;100467.04;226865;1202;138382;-71
2021/09/11 21:33:41;;;;;;;23.30;21.10;;;;;;;19.61;73.50;100467.40;226901;1209;139632;-71
2021/09/11 21:38:43;;;;;;;23.80;21.40;;;;;;;19.39;73.73;100475.39;226888;1209;139244;-70
2021/09/11 21:43:44;;;;;;;22.70;20.50;;;;;;;19.19;74.74;100471.30;226839;1208;139146;-72
2021/09/11 21:48:46;;;;;;;22.30;20.30;;;;;;;19.18;74.78;100467.92;226886;1209;139436;-71
2021/09/11 21:53:48;;;;;;;22.00;19.90;;;;;;;19.26;74.34;100467.91;226820;1201;138991;-72
2021/09/11 21:58:51;;;;;;;23.20;21.00;;;;;;;19.24;74.67;100471.65;227064;1201;139792;-70
2021/09/11 22:03:54;;;;;;;23.60;21.30;;;;;;;19.39;73.85;100468.79;226948;1201;139071;-69
2021/09/11 22:08:56;;;;;;;24.70;22.30;;;;;;;19.51;73.38;100467.00;227100;1209;138921;-68
2021/09/11 22:13:58;;;;;;;23.80;21.40;;;;;;;19.38;74.00;100463.27;226939;1205;139757;-71
2021/09/11 22:19:01;;;;;;;26.70;23.00;;;;;;;19.18;74.46;100465.73;226795;1209;138580;-71
2021/09/11 22:24:03;;;;;;;25.10;22.70;;;;;;;19.09;74.97;100471.67;227025;1205;139739;-70
2021/09/11 22:29:05;;;;;;;23.90;21.50;;;;;;;19.26;74.16;100472.52;227132;1204;138860;-70
2021/09/11 22:34:06;;;;;;;26.00;23.30;;;;;;;19.20;74.08;100476.52;226813;1202;138979;-72
2021/09/11 22:39:08;;;;;;;25.20;22.90;;;;;;;19.05;74.91;100475.83;226907;1207;139383;-68
2021/09/11 22:44:09;;;;;;;30.00;26.90;;;;;;;19.01;75.31;100470.02;226828;1209;139076;-70
2021/09/11 22:49:11;;;;;;;26.00;23.10;;;;;;;18.96;75.44;100472.41;227008;1209;139943;-69